Terminal Aerodrome Forecast
Issued by NWS Cleveland, OH

Home | Current Version | Previous Version | Graphics & Text | Print | Product List | Glossary Off
Versions: 1 2 3 4 5 6 7 8 9 10 11 12 13 14 15 16 17 18 19 20 21 22 23 24 25 26

303
FTUS41 KCLE 212328
TAFCAK
TAF
KCAK 212328Z 2200/2224 17006KT P6SM OVC100
     FM220200 18005KT 6SM BR VCSH OVC050
     FM220600 16005KT 4SM BR OVC025
      TEMPO 2209/2213 1SM BR BKN010
     FM221500 12005KT P6SM BKN035=

USA.gov is the U.S. government's official web portal to all federal, state and local government web resources and services.